createdAt,value
2017-12-24T00:00:43.470Z,95.45
2017-12-24T00:03:11.036Z,95.98
2017-12-24T00:05:38.629Z,95.91
2017-12-24T00:08:06.196Z,95.50
2017-12-24T00:10:33.779Z,95.26
2017-12-24T00:13:01.375Z,95.38
2017-12-24T00:15:28.935Z,95.49
2017-12-24T00:17:56.535Z,95.49
2017-12-24T00:20:24.156Z,95.32
2017-12-24T00:22:51.749Z,95.10
2017-12-24T00:25:19.376Z,95.14
2017-12-24T00:27:47.010Z,94.93
2017-12-24T00:30:14.594Z,94.56
2017-12-24T00:32:42.206Z,94.79
2017-12-24T00:35:09.808Z,94.43
2017-12-24T00:37:37.375Z,94.40
2017-12-24T00:40:05.009Z,94.39
2017-12-24T00:42:32.616Z,94.92
2017-12-24T00:45:00.204Z,95.07
2017-12-24T00:47:27.785Z,95.71
2017-12-24T00:49:55.460Z,95.39
2017-12-24T00:52:23.053Z,95.14
2017-12-24T00:54:50.642Z,95.06
2017-12-24T00:57:18.257Z,95.92
2017-12-24T00:59:45.838Z,95.40
2017-12-24T01:02:13.428Z,95.18
2017-12-24T01:04:41.075Z,94.90
2017-12-24T01:07:08.697Z,94.46
2017-12-24T01:09:36.334Z,94.30
2017-12-24T01:12:03.952Z,94.03
2017-12-24T01:14:31.532Z,94.05
2017-12-24T01:16:59.157Z,94.47
2017-12-24T01:19:26.751Z,94.51
2017-12-24T01:21:54.372Z,94.37
2017-12-24T01:24:21.964Z,94.73
2017-12-24T01:26:49.596Z,94.20
2017-12-24T01:29:17.181Z,93.75
2017-12-24T01:31:44.760Z,94.11
2017-12-24T01:34:12.380Z,94.30
2017-12-24T01:36:40.063Z,94.14
2017-12-24T01:39:07.635Z,94.00
2017-12-24T01:41:35.289Z,94.13
2017-12-24T01:44:02.871Z,93.93
2017-12-24T01:46:30.465Z,93.83
2017-12-24T01:48:58.090Z,94.08
2017-12-24T01:51:25.685Z,94.15
2017-12-24T01:53:53.266Z,94.79
2017-12-24T01:56:20.897Z,94.85
2017-12-24T01:58:48.480Z,94.72
2017-12-24T02:01:16.062Z,94.70
2017-12-24T02:03:43.723Z,94.62
2017-12-24T02:06:11.318Z,94.72
2017-12-24T02:08:38.910Z,93.85
2017-12-24T02:11:06.534Z,93.68
2017-12-24T02:13:34.118Z,93.95
2017-12-24T02:16:01.703Z,94.86
2017-12-24T02:18:29.320Z,94.97
2017-12-24T02:20:56.904Z,95.53
2017-12-24T02:23:24.489Z,96.13
2017-12-24T02:25:52.239Z,96.03
2017-12-24T02:28:19.819Z,95.33
2017-12-24T02:30:47.416Z,95.31
2017-12-24T02:33:15.050Z,96.00
2017-12-24T02:35:42.620Z,95.77
2017-12-24T02:38:10.213Z,95.19
2017-12-24T02:40:37.848Z,94.90
2017-12-24T02:43:05.434Z,94.87
2017-12-24T02:45:33.020Z,94.50
2017-12-24T02:48:00.634Z,94.37
2017-12-24T02:50:28.226Z,94.62
2017-12-24T02:52:55.813Z,94.25
2017-12-24T02:55:23.450Z,94.06
2017-12-24T02:57:51.029Z,94.06
2017-12-24T03:00:18.604Z,94.36
2017-12-24T03:02:46.226Z,93.44
2017-12-24T03:05:13.830Z,93.42
2017-12-24T03:07:41.399Z,94.32
2017-12-24T03:10:09.004Z,94.28
2017-12-24T03:12:36.603Z,93.27
2017-12-24T03:15:04.158Z,92.54
2017-12-24T03:17:31.779Z,92.26
2017-12-24T03:19:59.339Z,91.92
2017-12-24T03:22:26.914Z,91.85
2017-12-24T03:24:54.523Z,91.71
2017-12-24T03:27:22.113Z,91.87
2017-12-24T03:29:49.690Z,92.04
2017-12-24T03:32:17.317Z,91.93
2017-12-24T03:34:44.877Z,92.11
2017-12-24T03:37:12.475Z,92.29
2017-12-24T03:39:40.125Z,91.99
2017-12-24T03:42:07.692Z,92.55
2017-12-24T03:44:35.269Z,92.42
2017-12-24T03:47:02.878Z,91.67
2017-12-24T03:49:30.470Z,91.49
2017-12-24T03:51:58.057Z,91.64
2017-12-24T03:54:25.664Z,91.71
2017-12-24T03:56:53.244Z,92.03
2017-12-24T03:59:20.816Z,91.80
2017-12-24T04:01:48.441Z,91.54
2017-12-24T04:04:16.020Z,91.93
2017-12-24T04:06:43.602Z,91.24
2017-12-24T04:09:11.221Z,90.15
2017-12-24T04:11:38.808Z,90.40
2017-12-24T04:14:06.394Z,90.86
2017-12-24T04:16:33.999Z,90.87
2017-12-24T04:19:01.571Z,91.11
2017-12-24T04:21:29.148Z,90.90
2017-12-24T04:23:56.844Z,91.07
2017-12-24T04:26:24.434Z,90.50
2017-12-24T04:28:52.011Z,90.32
2017-12-24T04:31:19.635Z,89.35
2017-12-24T04:33:47.230Z,89.40
2017-12-24T04:36:14.814Z,89.16
2017-12-24T04:38:42.441Z,89.28
2017-12-24T04:41:10.030Z,89.15
2017-12-24T04:43:37.607Z,88.99
2017-12-24T04:46:05.298Z,89.06
2017-12-24T04:48:32.878Z,89.39
2017-12-24T04:51:00.450Z,88.75
2017-12-24T04:53:28.084Z,88.54
2017-12-24T04:55:55.652Z,88.48
2017-12-24T04:58:23.245Z,88.55
2017-12-24T05:00:50.872Z,88.08
2017-12-24T05:03:18.440Z,88.18
2017-12-24T05:05:46.193Z,88.36
2017-12-24T05:08:13.805Z,89.22
2017-12-24T05:10:41.379Z,88.79
2017-12-24T05:13:08.961Z,89.42
2017-12-24T05:15:36.576Z,89.88
2017-12-24T05:18:04.167Z,89.96
2017-12-24T05:20:31.734Z,89.54
2017-12-24T05:22:59.354Z,90.52
2017-12-24T05:25:26.938Z,90.20
2017-12-24T05:27:54.517Z,90.53
2017-12-24T05:30:22.167Z,90.86
2017-12-24T05:32:49.758Z,90.40
2017-12-24T05:35:17.331Z,89.84
2017-12-24T05:37:44.988Z,90.03
2017-12-24T05:40:12.582Z,89.63
2017-12-24T05:42:40.169Z,89.22
2017-12-24T05:45:07.795Z,89.31
2017-12-24T05:47:35.368Z,89.66
2017-12-24T05:50:02.948Z,89.92
2017-12-24T05:52:30.552Z,89.41
2017-12-24T05:54:58.140Z,89.51
2017-12-24T05:57:25.726Z,89.29
2017-12-24T05:59:53.340Z,89.41
2017-12-24T06:02:20.912Z,88.88
2017-12-24T06:04:48.497Z,89.08
2017-12-24T06:07:16.124Z,93.00
2017-12-24T06:09:43.710Z,92.16
2017-12-24T06:12:11.283Z,90.46
2017-12-24T06:14:38.897Z,88.86
2017-12-24T06:17:06.481Z,89.31
2017-12-24T06:19:34.053Z,92.99
2017-12-24T06:22:01.660Z,90.84
2017-12-24T06:24:29.233Z,90.71
2017-12-24T06:26:56.800Z,91.93
2017-12-24T06:29:24.399Z,90.29
2017-12-24T06:31:51.979Z,87.74
2017-12-24T06:34:19.536Z,88.35
2017-12-24T06:36:47.135Z,89.68
2017-12-24T06:39:14.699Z,90.59
2017-12-24T06:41:42.267Z,89.56
2017-12-24T06:44:10.011Z,88.54
2017-12-24T06:46:37.592Z,88.09
2017-12-24T06:49:05.175Z,88.89
2017-12-24T06:51:32.781Z,88.94
2017-12-24T06:54:00.372Z,89.31
2017-12-24T06:56:28.067Z,89.51
2017-12-24T06:58:55.718Z,89.51
2017-12-24T07:01:23.320Z,89.94
2017-12-24T07:03:50.905Z,90.02
2017-12-24T07:06:18.504Z,89.20
2017-12-24T07:08:46.063Z,88.05
2017-12-24T07:11:13.646Z,87.14
2017-12-24T07:13:41.255Z,85.80
2017-12-24T07:16:08.832Z,84.90
2017-12-24T07:18:36.414Z,83.66
2017-12-24T07:21:04.034Z,82.76
2017-12-24T07:23:31.616Z,81.37
2017-12-24T07:25:59.210Z,79.95
2017-12-24T07:28:26.892Z,79.23
2017-12-24T07:30:54.480Z,79.18
2017-12-24T07:33:22.679Z,79.73
2017-12-24T07:35:50.282Z,80.73
2017-12-24T07:38:17.869Z,82.33
2017-12-24T07:40:45.446Z,82.54
2017-12-24T07:43:13.934Z,84.16
2017-12-24T07:45:41.520Z,84.63
2017-12-24T07:48:09.117Z,83.98
2017-12-24T07:50:36.727Z,82.93
2017-12-24T07:53:04.304Z,83.61
2017-12-24T07:55:31.884Z,81.74
2017-12-24T07:57:59.686Z,81.84
2017-12-24T08:00:28.196Z,81.61
2017-12-24T08:02:55.786Z,81.97
2017-12-24T08:05:23.464Z,81.06
2017-12-24T08:07:51.046Z,81.12
2017-12-24T08:10:18.633Z,80.92
2017-12-24T08:12:46.223Z,80.30
2017-12-24T08:15:13.802Z,77.92
2017-12-24T08:17:41.374Z,75.86
2017-12-24T08:20:08.994Z,74.33
2017-12-24T08:22:36.568Z,74.17
2017-12-24T08:25:04.148Z,72.97
2017-12-24T08:27:31.776Z,72.45
2017-12-24T08:29:59.366Z,70.62
2017-12-24T08:32:26.951Z,69.50
2017-12-24T08:34:54.577Z,68.20
2017-12-24T08:37:22.174Z,67.81
2017-12-24T08:39:49.762Z,67.72
2017-12-24T08:42:17.368Z,65.81
2017-12-24T08:44:44.960Z,65.16
2017-12-24T08:47:12.535Z,66.18
2017-12-24T08:49:40.127Z,65.64
2017-12-24T08:52:07.704Z,62.50
2017-12-24T08:54:35.264Z,60.10
2017-12-24T08:57:02.876Z,55.55
2017-12-24T08:59:30.435Z,52.80
2017-12-24T09:01:58.087Z,53.57
2017-12-24T09:04:25.719Z,51.50
2017-12-24T09:06:53.293Z,51.38
2017-12-24T09:09:20.882Z,49.08
2017-12-24T09:11:48.524Z,47.29
2017-12-24T09:14:16.089Z,48.98
2017-12-24T09:16:43.633Z,48.80
2017-12-24T09:19:11.260Z,49.26
2017-12-24T09:21:38.837Z,49.81
2017-12-24T09:24:06.397Z,51.07
2017-12-24T09:26:34.034Z,50.58
2017-12-24T09:29:01.615Z,51.86
2017-12-24T09:31:29.181Z,53.95
2017-12-24T09:33:56.780Z,56.02
2017-12-24T09:36:24.347Z,57.17
2017-12-24T09:38:51.931Z,58.20
2017-12-24T09:41:19.550Z,59.65
2017-12-24T09:43:47.149Z,60.30
2017-12-24T09:46:14.712Z,60.50
2017-12-24T09:48:42.299Z,60.16
2017-12-24T09:51:09.866Z,60.57
2017-12-24T09:53:37.432Z,61.08
2017-12-24T09:56:05.040Z,61.21
2017-12-24T09:58:32.632Z,61.97
2017-12-24T10:01:00.275Z,61.66
2017-12-24T10:03:27.887Z,60.58
2017-12-24T10:05:55.460Z,57.72
2017-12-24T10:08:23.013Z,57.21
2017-12-24T10:10:50.637Z,57.32
2017-12-24T10:13:18.206Z,57.30
2017-12-24T10:15:45.781Z,57.10
2017-12-24T10:18:13.398Z,58.02
2017-12-24T10:20:40.965Z,58.78
2017-12-24T10:23:08.539Z,59.91
2017-12-24T10:25:36.156Z,61.14
2017-12-24T10:28:03.751Z,61.75
2017-12-24T10:30:31.334Z,62.74
2017-12-24T10:32:58.961Z,62.16
2017-12-24T10:35:26.546Z,62.04
2017-12-24T10:37:54.114Z,61.65
2017-12-24T10:40:21.728Z,61.99
2017-12-24T10:42:49.434Z,61.63
2017-12-24T10:45:17.011Z,62.94
2017-12-24T10:47:44.603Z,61.95
2017-12-24T10:50:12.207Z,62.30
2017-12-24T10:52:39.793Z,62.53
2017-12-24T10:55:07.413Z,62.71
2017-12-24T10:57:35.013Z,63.16
2017-12-24T11:00:02.563Z,63.57
2017-12-24T11:02:30.156Z,63.73
2017-12-24T11:04:57.724Z,64.30
2017-12-24T11:07:25.304Z,64.58
2017-12-24T11:09:52.898Z,64.51
2017-12-24T11:12:20.477Z,64.41
2017-12-24T11:14:48.060Z,64.17
2017-12-24T11:17:15.763Z,64.30
2017-12-24T11:19:43.323Z,64.62
2017-12-24T11:22:10.903Z,65.27
2017-12-24T11:24:38.510Z,66.23
2017-12-24T11:27:06.087Z,66.38
2017-12-24T11:29:33.807Z,66.62
2017-12-24T11:32:01.426Z,67.14
2017-12-24T11:34:29.016Z,66.82
2017-12-24T11:36:56.608Z,66.44
2017-12-24T11:39:24.210Z,66.31
2017-12-24T11:41:51.767Z,66.40
2017-12-24T11:44:19.341Z,66.75
2017-12-24T11:46:46.966Z,67.06
2017-12-24T11:49:14.541Z,66.60
2017-12-24T11:51:42.098Z,66.85
2017-12-24T11:54:09.700Z,66.15
2017-12-24T11:56:37.260Z,66.67
2017-12-24T11:59:05.058Z,66.41
2017-12-24T12:01:32.664Z,66.21
2017-12-24T12:04:00.239Z,66.73
2017-12-24T12:06:27.816Z,66.70
2017-12-24T12:08:55.450Z,66.95
2017-12-24T12:11:23.040Z,66.51
2017-12-24T12:13:50.830Z,66.48
2017-12-24T12:16:18.427Z,66.30
2017-12-24T12:18:46.006Z,66.52
2017-12-24T12:21:13.564Z,67.31
2017-12-24T12:23:42.363Z,67.09
2017-12-24T12:26:10.992Z,67.71
2017-12-24T12:28:39.653Z,68.09
2017-12-24T12:31:08.300Z,68.57
2017-12-24T12:33:37.857Z,68.54
2017-12-24T12:36:06.890Z,68.44
2017-12-24T12:38:36.298Z,68.25
2017-12-24T12:41:05.598Z,68.29
2017-12-24T12:43:34.634Z,68.23
2017-12-24T12:46:03.766Z,67.93
2017-12-24T12:48:33.416Z,67.79
2017-12-24T12:51:02.797Z,67.56
2017-12-24T12:53:32.206Z,67.37
2017-12-24T12:56:01.884Z,66.85
2017-12-24T12:58:32.146Z,67.24
2017-12-24T13:01:01.342Z,67.60
2017-12-24T13:03:30.591Z,67.56
2017-12-24T13:05:58.245Z,67.62
2017-12-24T13:08:25.820Z,67.82
2017-12-24T13:10:53.389Z,67.69
2017-12-24T13:13:21.014Z,68.01
2017-12-24T13:15:48.586Z,68.22
2017-12-24T13:18:16.143Z,68.68
2017-12-24T13:20:43.737Z,68.98
2017-12-24T13:23:11.312Z,69.17
2017-12-24T13:25:38.923Z,69.03
2017-12-24T13:28:06.598Z,68.93
2017-12-24T13:30:34.182Z,69.11
2017-12-24T13:33:01.782Z,69.19
2017-12-24T13:35:29.505Z,69.18
2017-12-24T13:37:57.083Z,69.31
2017-12-24T13:40:25.224Z,69.69
2017-12-24T13:42:52.946Z,69.95
2017-12-24T13:45:20.526Z,69.96
2017-12-24T13:47:48.090Z,70.02
2017-12-24T13:50:15.731Z,70.24
2017-12-24T13:52:43.388Z,70.37
2017-12-24T13:55:11.826Z,70.51
2017-12-24T13:57:39.432Z,70.35
2017-12-24T14:00:07.340Z,70.46
2017-12-24T14:02:35.046Z,70.88
2017-12-24T14:05:03.943Z,70.62
2017-12-24T14:07:31.514Z,70.92
2017-12-24T14:12:29.610Z,70.95
2017-12-24T14:14:57.615Z,70.86
2017-12-24T14:17:25.205Z,70.92
2017-12-24T14:19:52.842Z,70.92
2017-12-24T14:22:20.742Z,71.06
2017-12-24T14:24:48.715Z,70.78
2017-12-24T14:27:16.332Z,70.61
2017-12-24T14:29:44.026Z,70.67
2017-12-24T14:32:11.665Z,70.90
2017-12-24T14:34:39.284Z,70.93
2017-12-24T14:37:06.866Z,70.90
2017-12-24T14:39:34.500Z,71.03
2017-12-24T14:42:02.142Z,71.09
2017-12-24T14:44:30.002Z,71.61
2017-12-24T14:46:57.618Z,72.11
2017-12-24T14:49:27.293Z,72.29
2017-12-24T14:51:54.907Z,72.48
2017-12-24T14:54:22.492Z,72.54
2017-12-24T14:56:51.049Z,73.03
2017-12-24T14:59:18.643Z,72.43
2017-12-24T15:01:46.284Z,73.03
2017-12-24T15:04:14.626Z,72.49
2017-12-24T15:06:42.311Z,72.56
2017-12-24T15:09:09.994Z,72.96
2017-12-24T15:11:37.702Z,72.63
2017-12-24T15:14:05.557Z,72.96
2017-12-24T15:16:36.545Z,73.14
2017-12-24T15:19:04.223Z,73.47
2017-12-24T15:21:31.817Z,74.63
2017-12-24T15:23:59.591Z,74.41
2017-12-24T15:26:32.723Z,75.06
2017-12-24T15:29:02.472Z,74.70
2017-12-24T15:31:31.408Z,74.89
2017-12-24T15:34:00.040Z,75.25
2017-12-24T15:36:28.590Z,75.44
2017-12-24T15:38:56.321Z,75.58
2017-12-24T15:41:26.049Z,76.09
2017-12-24T15:43:53.649Z,75.76
2017-12-24T15:46:22.206Z,76.05
2017-12-24T15:48:49.896Z,76.46
2017-12-24T15:51:17.474Z,76.59
2017-12-24T15:53:45.088Z,76.64
2017-12-24T15:56:13.496Z,76.68
2017-12-24T15:58:41.103Z,76.49
2017-12-24T16:01:08.729Z,76.44
2017-12-24T16:03:38.424Z,76.47
2017-12-24T16:06:06.072Z,76.35
2017-12-24T16:08:33.733Z,76.29
2017-12-24T16:11:01.314Z,76.18
2017-12-24T16:13:28.972Z,76.80
2017-12-24T16:15:56.580Z,76.09
2017-12-24T16:18:24.154Z,76.10
2017-12-24T16:20:51.815Z,76.00
2017-12-24T16:23:19.420Z,76.19
2017-12-24T16:25:47.162Z,76.20
2017-12-24T16:28:14.727Z,76.14
2017-12-24T16:30:42.360Z,76.11
2017-12-24T16:33:10.765Z,76.38
2017-12-24T16:35:38.335Z,76.70
2017-12-24T16:38:05.962Z,76.83
2017-12-24T16:40:33.541Z,77.15
2017-12-24T16:43:01.188Z,77.70
2017-12-24T16:45:28.780Z,77.90
2017-12-24T16:47:56.364Z,77.70
2017-12-24T16:50:23.926Z,77.86
2017-12-24T16:52:51.520Z,77.94
2017-12-24T16:55:19.101Z,77.99
2017-12-24T16:57:46.670Z,78.01
2017-12-24T17:00:14.336Z,78.27
2017-12-24T17:02:41.995Z,78.46
2017-12-24T17:05:09.564Z,78.40
2017-12-24T17:07:37.177Z,78.53
2017-12-24T17:10:04.758Z,78.82
2017-12-24T17:12:32.340Z,79.03
2017-12-24T17:14:59.930Z,79.34
2017-12-24T17:17:27.478Z,79.46
2017-12-24T17:19:55.052Z,79.34
2017-12-24T17:22:22.691Z,79.52
2017-12-24T17:24:50.258Z,79.77
2017-12-24T17:27:17.851Z,79.63
2017-12-24T17:29:45.437Z,79.40
2017-12-24T17:32:13.022Z,79.40
2017-12-24T17:34:40.597Z,79.77
2017-12-24T17:37:08.196Z,79.75
2017-12-24T17:39:35.764Z,79.75
2017-12-24T17:42:03.334Z,79.69
2017-12-24T17:44:30.949Z,79.57
2017-12-24T17:46:58.524Z,79.93
2017-12-24T17:49:26.121Z,80.21
2017-12-24T17:51:53.742Z,80.09
2017-12-24T17:54:26.788Z,80.07
2017-12-24T17:56:54.408Z,80.19
2017-12-24T17:59:22.002Z,80.12
2017-12-24T18:01:49.619Z,80.54
2017-12-24T18:04:17.233Z,80.43
2017-12-24T18:06:44.830Z,80.26
2017-12-24T18:09:12.400Z,80.61
2017-12-24T18:11:39.992Z,80.77
2017-12-24T18:14:07.581Z,80.90
2017-12-24T18:16:35.390Z,80.72
2017-12-24T18:19:03.011Z,80.37
2017-12-24T18:21:30.661Z,80.20
2017-12-24T18:23:58.385Z,80.21
2017-12-24T18:26:26.007Z,80.33
2017-12-24T18:28:53.640Z,80.17
2017-12-24T18:31:21.221Z,79.78
2017-12-24T18:33:48.778Z,80.08
2017-12-24T18:36:16.379Z,80.39
2017-12-24T18:38:44.039Z,80.02
2017-12-24T18:41:11.844Z,80.28
2017-12-24T18:43:39.632Z,79.75
2017-12-24T18:46:07.208Z,79.86
2017-12-24T18:48:34.796Z,79.79
2017-12-24T18:51:04.252Z,79.71
2017-12-24T18:53:33.628Z,79.77
2017-12-24T18:56:02.723Z,80.09
2017-12-24T18:58:32.158Z,80.13
2017-12-24T19:01:01.254Z,80.24
2017-12-24T19:03:29.976Z,79.74
2017-12-24T19:05:59.788Z,79.94
2017-12-24T19:08:27.964Z,80.01
2017-12-24T19:10:57.632Z,79.82
2017-12-24T19:13:28.475Z,79.87
2017-12-24T19:15:58.693Z,79.77
2017-12-24T19:18:28.004Z,80.13
2017-12-24T19:20:55.715Z,80.48
2017-12-24T19:23:25.207Z,80.61
2017-12-24T19:25:54.953Z,80.53
2017-12-24T19:28:25.140Z,80.49
2017-12-24T19:30:55.316Z,80.49
2017-12-24T19:33:24.685Z,80.34
2017-12-24T19:35:53.736Z,80.38
2017-12-24T19:38:23.310Z,80.55
2017-12-24T19:40:51.909Z,80.63
2017-12-24T19:43:19.565Z,80.66
2017-12-24T19:45:47.199Z,80.20
2017-12-24T19:48:14.776Z,80.30
2017-12-24T19:50:42.346Z,79.76
2017-12-24T19:53:10.013Z,81.66
2017-12-24T19:55:37.572Z,82.69
2017-12-24T19:58:05.156Z,82.85
2017-12-24T20:00:32.762Z,83.31
2017-12-24T20:03:00.357Z,83.27
2017-12-24T20:05:27.977Z,84.94
2017-12-24T20:07:55.564Z,85.78
2017-12-24T20:10:23.133Z,85.75
2017-12-24T20:12:50.703Z,85.82
2017-12-24T20:15:18.335Z,85.22
2017-12-24T20:17:46.025Z,84.58
2017-12-24T20:20:13.613Z,85.11
2017-12-24T20:22:41.302Z,84.66
2017-12-24T20:25:08.870Z,85.97
2017-12-24T20:27:36.458Z,87.09
2017-12-24T20:30:04.127Z,86.62
2017-12-24T20:32:31.709Z,86.52
2017-12-24T20:34:59.286Z,86.42
2017-12-24T20:37:26.917Z,86.60
2017-12-24T20:39:54.480Z,86.13
2017-12-24T20:42:22.079Z,87.10
2017-12-24T20:44:49.721Z,87.50
2017-12-24T20:47:17.283Z,87.51
2017-12-24T20:49:45.664Z,88.23
2017-12-24T20:52:14.637Z,88.26
2017-12-24T20:54:43.822Z,88.20
2017-12-24T20:57:14.243Z,88.13
2017-12-24T20:59:41.986Z,88.99
2017-12-24T21:02:09.544Z,89.98
2017-12-24T21:04:37.153Z,90.91
2017-12-24T21:07:04.816Z,90.44
2017-12-24T21:09:32.385Z,90.40
2017-12-24T21:11:59.998Z,91.62
2017-12-24T21:14:27.575Z,90.74
2017-12-24T21:16:55.150Z,90.71
2017-12-24T21:19:22.764Z,90.59
2017-12-24T21:21:50.346Z,90.64
2017-12-24T21:24:17.968Z,90.75
2017-12-24T21:26:45.597Z,91.03
2017-12-24T21:29:13.176Z,91.31
2017-12-24T21:31:40.752Z,91.19
2017-12-24T21:34:08.363Z,91.09
2017-12-24T21:36:35.930Z,90.56
2017-12-24T21:39:03.559Z,89.27
2017-12-24T21:41:31.170Z,89.69
2017-12-24T21:43:58.740Z,89.52
2017-12-24T21:46:26.308Z,89.82
2017-12-24T21:48:53.922Z,91.09
2017-12-24T21:51:21.497Z,92.00
2017-12-24T21:53:49.083Z,92.27
2017-12-24T21:56:16.688Z,92.17
2017-12-24T21:58:44.297Z,92.14
2017-12-24T22:01:11.879Z,92.92
2017-12-24T22:03:39.469Z,93.57
2017-12-24T22:06:07.047Z,93.21
2017-12-24T22:08:34.627Z,93.55
2017-12-24T22:11:02.240Z,92.75
2017-12-24T22:13:29.841Z,93.29
2017-12-24T22:15:57.409Z,92.35
2017-12-24T22:18:25.009Z,92.93
2017-12-24T22:20:52.598Z,92.98
2017-12-24T22:23:20.170Z,92.99
2017-12-24T22:25:47.774Z,92.07
2017-12-24T22:28:15.348Z,91.77
2017-12-24T22:30:42.898Z,90.68
2017-12-24T22:33:10.493Z,90.66
2017-12-24T22:35:38.082Z,91.36
2017-12-24T22:38:06.517Z,91.34
2017-12-24T22:40:34.444Z,91.17
2017-12-24T22:43:03.247Z,90.69
2017-12-24T22:45:31.319Z,90.52
2017-12-24T22:47:59.712Z,91.27
2017-12-24T22:50:28.247Z,91.45
2017-12-24T22:52:56.689Z,92.10
2017-12-24T22:55:25.041Z,91.90
2017-12-24T22:57:52.731Z,91.58
2017-12-24T23:00:20.961Z,92.48
2017-12-24T23:02:49.500Z,92.44
2017-12-24T23:05:17.583Z,91.71
2017-12-24T23:07:45.175Z,91.42
2017-12-24T23:10:12.854Z,90.28
2017-12-24T23:12:41.229Z,90.74
2017-12-24T23:15:09.761Z,90.79
2017-12-24T23:17:37.887Z,89.56
2017-12-24T23:20:05.771Z,89.27
2017-12-24T23:22:34.298Z,89.69
2017-12-24T23:25:03.130Z,90.93
2017-12-24T23:27:31.714Z,91.52
2017-12-24T23:30:00.271Z,90.41
2017-12-24T23:32:29.427Z,89.64
2017-12-24T23:34:57.121Z,89.23
2017-12-24T23:37:24.676Z,89.63
2017-12-24T23:39:52.317Z,89.60
2017-12-24T23:42:19.888Z,90.05
2017-12-24T23:44:47.457Z,90.07
2017-12-24T23:47:15.056Z,90.15
2017-12-24T23:49:42.638Z,90.53
2017-12-24T23:52:10.225Z,90.56
2017-12-24T23:54:37.841Z,90.64
2017-12-24T23:57:05.476Z,90.58
2017-12-24T23:59:33.048Z,90.64
